sensor_id;sensor_type;location;lat;lon;timestamp;pressure;altitude;pressure_sealevel;temperature;humidity
17438;BME280;70275;52.198;5.422;2023-06-19T00:00:14;100630.25;;;22.90;47.56
17438;BME280;70275;52.198;5.422;2023-06-19T00:02:44;100624.38;;;22.93;47.54
17438;BME280;70275;52.198;5.422;2023-06-19T00:05:13;100625.97;;;23.07;47.32
17438;BME280;70275;52.198;5.422;2023-06-19T00:07:45;100627.69;;;23.02;47.23
17438;BME280;70275;52.198;5.422;2023-06-19T00:10:13;100631.31;;;22.83;47.59
17438;BME280;70275;52.198;5.422;2023-06-19T00:12:42;100634.44;;;22.73;47.71
17438;BME280;70275;52.198;5.422;2023-06-19T00:15:11;100647.06;;;22.92;47.61
17438;BME280;70275;52.198;5.422;2023-06-19T00:17:40;100636.44;;;22.97;47.65
17438;BME280;70275;52.198;5.422;2023-06-19T00:20:10;100637.50;;;22.90;47.71
17438;BME280;70275;52.198;5.422;2023-06-19T00:22:39;100642.69;;;22.91;47.60
17438;BME280;70275;52.198;5.422;2023-06-19T00:25:11;100635.66;;;22.90;47.96
17438;BME280;70275;52.198;5.422;2023-06-19T00:27:40;100638.38;;;22.84;48.21
17438;BME280;70275;52.198;5.422;2023-06-19T00:30:10;100643.13;;;22.88;48.24
17438;BME280;70275;52.198;5.422;2023-06-19T00:32:39;100640.59;;;23.00;48.00
17438;BME280;70275;52.198;5.422;2023-06-19T00:35:16;100644.28;;;23.05;48.02
17438;BME280;70275;52.198;5.422;2023-06-19T00:37:48;100640.97;;;23.03;48.32
17438;BME280;70275;52.198;5.422;2023-06-19T00:40:27;100649.69;;;23.05;48.09
17438;BME280;70275;52.198;5.422;2023-06-19T00:42:57;100639.34;;;23.02;48.47
17438;BME280;70275;52.198;5.422;2023-06-19T00:45:27;100646.66;;;22.95;49.18
17438;BME280;70275;52.198;5.422;2023-06-19T00:47:57;100657.38;;;23.08;48.75
17438;BME280;70275;52.198;5.422;2023-06-19T00:50:28;100659.66;;;23.05;49.05
17438;BME280;70275;52.198;5.422;2023-06-19T00:52:58;100660.41;;;22.80;49.70
17438;BME280;70275;52.198;5.422;2023-06-19T00:55:33;100659.16;;;22.83;50.08
17438;BME280;70275;52.198;5.422;2023-06-19T00:58:03;100665.66;;;22.69;50.65
17438;BME280;70275;52.198;5.422;2023-06-19T01:00:32;100667.94;;;22.72;50.78
17438;BME280;70275;52.198;5.422;2023-06-19T01:03:01;100669.38;;;22.68;51.43
17438;BME280;70275;52.198;5.422;2023-06-19T01:05:31;100663.97;;;22.68;51.26
17438;BME280;70275;52.198;5.422;2023-06-19T01:08:04;100664.41;;;22.52;52.17
17438;BME280;70275;52.198;5.422;2023-06-19T01:10:44;100654.47;;;22.39;52.69
17438;BME280;70275;52.198;5.422;2023-06-19T01:13:21;100663.56;;;22.45;52.89
17438;BME280;70275;52.198;5.422;2023-06-19T01:15:56;100671.94;;;22.30;53.63
17438;BME280;70275;52.198;5.422;2023-06-19T01:18:26;100674.84;;;22.22;53.99
17438;BME280;70275;52.198;5.422;2023-06-19T01:20:56;100682.53;;;22.19;54.05
17438;BME280;70275;52.198;5.422;2023-06-19T01:23:27;100685.22;;;22.12;54.59
17438;BME280;70275;52.198;5.422;2023-06-19T01:25:56;100684.78;;;21.95;55.00
17438;BME280;70275;52.198;5.422;2023-06-19T01:28:25;100685.00;;;21.94;55.43
17438;BME280;70275;52.198;5.422;2023-06-19T01:30:57;100682.31;;;21.87;55.43
17438;BME280;70275;52.198;5.422;2023-06-19T01:33:30;100692.25;;;21.87;55.86
17438;BME280;70275;52.198;5.422;2023-06-19T01:36:02;100688.47;;;21.75;56.51
17438;BME280;70275;52.198;5.422;2023-06-19T01:38:36;100691.16;;;21.68;56.81
17438;BME280;70275;52.198;5.422;2023-06-19T01:41:08;100692.63;;;21.58;57.31
17438;BME280;70275;52.198;5.422;2023-06-19T01:43:38;100695.09;;;21.53;57.83
17438;BME280;70275;52.198;5.422;2023-06-19T01:46:08;100696.72;;;21.40;58.34
17438;BME280;70275;52.198;5.422;2023-06-19T01:48:38;100700.41;;;21.33;58.84
17438;BME280;70275;52.198;5.422;2023-06-19T01:51:07;100709.09;;;21.22;59.27
17438;BME280;70275;52.198;5.422;2023-06-19T01:53:39;100714.47;;;21.22;59.41
17438;BME280;70275;52.198;5.422;2023-06-19T01:56:08;100716.94;;;21.17;59.97
17438;BME280;70275;52.198;5.422;2023-06-19T01:58:37;100714.72;;;21.27;59.89
17438;BME280;70275;52.198;5.422;2023-06-19T02:01:06;100722.59;;;21.28;59.66
17438;BME280;70275;52.198;5.422;2023-06-19T02:03:35;100717.78;;;21.17;60.10
17438;BME280;70275;52.198;5.422;2023-06-19T02:06:04;100714.44;;;21.15;60.20
17438;BME280;70275;52.198;5.422;2023-06-19T02:08:33;100712.63;;;21.22;60.29
17438;BME280;70275;52.198;5.422;2023-06-19T02:11:04;100698.69;;;21.19;60.45
17438;BME280;70275;52.198;5.422;2023-06-19T02:13:34;100710.28;;;21.13;60.53
17438;BME280;70275;52.198;5.422;2023-06-19T02:16:03;100713.63;;;21.15;60.53
17438;BME280;70275;52.198;5.422;2023-06-19T02:18:32;100714.94;;;21.32;60.28
17438;BME280;70275;52.198;5.422;2023-06-19T02:21:01;100717.63;;;21.32;60.01
17438;BME280;70275;52.198;5.422;2023-06-19T02:23:30;100716.94;;;21.17;61.11
17438;BME280;70275;52.198;5.422;2023-06-19T02:25:58;100720.91;;;21.21;60.94
17438;BME280;70275;52.198;5.422;2023-06-19T02:28:30;100726.97;;;21.36;60.77
17438;BME280;70275;52.198;5.422;2023-06-19T02:30:59;100717.16;;;21.15;61.69
17438;BME280;70275;52.198;5.422;2023-06-19T02:33:28;100723.94;;;21.05;62.44
17438;BME280;70275;52.198;5.422;2023-06-19T02:35:58;100724.28;;;20.95;62.94
17438;BME280;70275;52.198;5.422;2023-06-19T02:38:27;100726.84;;;21.10;62.91
17438;BME280;70275;52.198;5.422;2023-06-19T02:40:56;100727.19;;;21.00;63.49
17438;BME280;70275;52.198;5.422;2023-06-19T02:43:30;100735.88;;;20.96;63.91
17438;BME280;70275;52.198;5.422;2023-06-19T02:45:59;100729.25;;;20.98;63.87
17438;BME280;70275;52.198;5.422;2023-06-19T02:48:28;100728.44;;;20.98;63.91
17438;BME280;70275;52.198;5.422;2023-06-19T02:50:57;100736.38;;;21.06;63.30
17438;BME280;70275;52.198;5.422;2023-06-19T02:53:26;100729.59;;;20.89;64.43
17438;BME280;70275;52.198;5.422;2023-06-19T02:55:55;100742.91;;;20.90;64.13
17438;BME280;70275;52.198;5.422;2023-06-19T02:58:24;100752.91;;;21.03;64.13
17438;BME280;70275;52.198;5.422;2023-06-19T03:00:56;100740.88;;;20.99;63.85
17438;BME280;70275;52.198;5.422;2023-06-19T03:03:24;100748.25;;;20.84;64.45
17438;BME280;70275;52.198;5.422;2023-06-19T03:05:53;100752.44;;;20.93;64.28
17438;BME280;70275;52.198;5.422;2023-06-19T03:08:22;100748.63;;;20.81;64.66
17438;BME280;70275;52.198;5.422;2023-06-19T03:10:51;100764.00;;;20.87;64.82
17438;BME280;70275;52.198;5.422;2023-06-19T03:13:20;100749.34;;;20.96;64.31
17438;BME280;70275;52.198;5.422;2023-06-19T03:15:49;100739.50;;;20.82;64.89
17438;BME280;70275;52.198;5.422;2023-06-19T03:18:20;100747.25;;;20.91;64.86
17438;BME280;70275;52.198;5.422;2023-06-19T03:20:49;100747.84;;;20.87;65.01
17438;BME280;70275;52.198;5.422;2023-06-19T03:23:18;100747.41;;;20.83;64.89
17438;BME280;70275;52.198;5.422;2023-06-19T03:25:47;100749.06;;;20.84;65.15
17438;BME280;70275;52.198;5.422;2023-06-19T03:28:16;100748.41;;;20.75;65.32
17438;BME280;70275;52.198;5.422;2023-06-19T03:30:45;100749.44;;;20.74;65.67
17438;BME280;70275;52.198;5.422;2023-06-19T03:33:13;100744.97;;;20.88;65.52
17438;BME280;70275;52.198;5.422;2023-06-19T03:35:45;100754.84;;;20.74;65.96
17438;BME280;70275;52.198;5.422;2023-06-19T03:38:14;100759.03;;;20.84;65.92
17438;BME280;70275;52.198;5.422;2023-06-19T03:40:43;100766.22;;;20.76;66.28
17438;BME280;70275;52.198;5.422;2023-06-19T03:43:12;100763.00;;;20.60;66.82
17438;BME280;70275;52.198;5.422;2023-06-19T03:45:41;100771.97;;;20.67;66.67
17438;BME280;70275;52.198;5.422;2023-06-19T03:48:10;100768.81;;;20.63;66.93
17438;BME280;70275;52.198;5.422;2023-06-19T03:50:39;100771.63;;;20.49;68.08
17438;BME280;70275;52.198;5.422;2023-06-19T03:53:10;100781.13;;;20.51;68.00
17438;BME280;70275;52.198;5.422;2023-06-19T03:55:40;100779.00;;;20.40;68.38
17438;BME280;70275;52.198;5.422;2023-06-19T03:58:09;100779.81;;;20.41;68.63
17438;BME280;70275;52.198;5.422;2023-06-19T04:00:38;100793.50;;;20.39;68.63
17438;BME280;70275;52.198;5.422;2023-06-19T04:03:07;100790.25;;;20.50;68.69
17438;BME280;70275;52.198;5.422;2023-06-19T04:05:36;100787.31;;;20.45;68.90
17438;BME280;70275;52.198;5.422;2023-06-19T04:08:10;100788.53;;;20.43;69.06
17438;BME280;70275;52.198;5.422;2023-06-19T04:10:39;100806.16;;;20.45;69.36
17438;BME280;70275;52.198;5.422;2023-06-19T04:13:08;100800.56;;;20.47;69.42
17438;BME280;70275;52.198;5.422;2023-06-19T04:15:36;100803.53;;;20.31;70.62
17438;BME280;70275;52.198;5.422;2023-06-19T04:18:05;100808.34;;;20.35;70.29
17438;BME280;70275;52.198;5.422;2023-06-19T04:20:34;100808.44;;;20.42;70.20
17438;BME280;70275;52.198;5.422;2023-06-19T04:23:03;100810.13;;;20.28;70.83
17438;BME280;70275;52.198;5.422;2023-06-19T04:25:35;100819.50;;;20.32;70.46
17438;BME280;70275;52.198;5.422;2023-06-19T04:28:04;100817.72;;;20.39;70.58
17438;BME280;70275;52.198;5.422;2023-06-19T04:30:33;100823.22;;;20.31;70.67
17438;BME280;70275;52.198;5.422;2023-06-19T04:33:03;100831.50;;;20.30;70.59
17438;BME280;70275;52.198;5.422;2023-06-19T04:35:34;100828.34;;;20.26;70.75
17438;BME280;70275;52.198;5.422;2023-06-19T04:38:06;100837.84;;;20.22;70.69
17438;BME280;70275;52.198;5.422;2023-06-19T04:40:37;100836.63;;;20.25;70.91
17438;BME280;70275;52.198;5.422;2023-06-19T04:43:09;100848.53;;;20.37;70.51
17438;BME280;70275;52.198;5.422;2023-06-19T04:45:38;100847.81;;;20.28;70.53
17438;BME280;70275;52.198;5.422;2023-06-19T04:48:08;100851.63;;;20.19;71.18
17438;BME280;70275;52.198;5.422;2023-06-19T04:50:37;100842.31;;;20.36;70.62
17438;BME280;70275;52.198;5.422;2023-06-19T04:53:06;100853.47;;;20.33;71.18
17438;BME280;70275;52.198;5.422;2023-06-19T04:55:37;100849.94;;;19.97;72.06
17438;BME280;70275;52.198;5.422;2023-06-19T04:58:06;100863.94;;;20.07;71.96
17438;BME280;70275;52.198;5.422;2023-06-19T05:00:35;100871.81;;;20.08;71.97
17438;BME280;70275;52.198;5.422;2023-06-19T05:03:04;100848.53;;;20.01;71.78
17438;BME280;70275;52.198;5.422;2023-06-19T05:05:33;100872.59;;;20.02;71.65
17438;BME280;70275;52.198;5.422;2023-06-19T05:08:02;100867.28;;;20.09;71.13
17438;BME280;70275;52.198;5.422;2023-06-19T05:10:31;100874.16;;;19.97;71.05
17438;BME280;70275;52.198;5.422;2023-06-19T05:13:02;100879.56;;;19.82;71.04
17438;BME280;70275;52.198;5.422;2023-06-19T05:15:31;100884.44;;;19.93;70.38
17438;BME280;70275;52.198;5.422;2023-06-19T05:18:00;100889.16;;;20.06;69.63
17438;BME280;70275;52.198;5.422;2023-06-19T05:20:29;100869.31;;;20.07;68.36
17438;BME280;70275;52.198;5.422;2023-06-19T05:22:58;100881.63;;;20.16;68.60
17438;BME280;70275;52.198;5.422;2023-06-19T05:25:27;100885.47;;;20.07;68.59
17438;BME280;70275;52.198;5.422;2023-06-19T05:27:56;100889.94;;;20.21;68.46
17438;BME280;70275;52.198;5.422;2023-06-19T05:30:27;100892.75;;;20.13;68.63
17438;BME280;70275;52.198;5.422;2023-06-19T05:32:56;100899.72;;;20.22;68.56
17438;BME280;70275;52.198;5.422;2023-06-19T05:35:25;100901.75;;;20.20;68.66
17438;BME280;70275;52.198;5.422;2023-06-19T05:37:56;100902.31;;;20.30;67.90
17438;BME280;70275;52.198;5.422;2023-06-19T05:40:25;100898.31;;;20.47;67.95
17438;BME280;70275;52.198;5.422;2023-06-19T05:42:54;100906.41;;;20.47;67.83
17438;BME280;70275;52.198;5.422;2023-06-19T05:45:27;100914.53;;;20.54;67.35
17438;BME280;70275;52.198;5.422;2023-06-19T05:47:56;100902.81;;;20.40;68.05
17438;BME280;70275;52.198;5.422;2023-06-19T05:50:25;100916.16;;;20.48;67.73
17438;BME280;70275;52.198;5.422;2023-06-19T05:52:54;100929.66;;;20.34;67.26
17438;BME280;70275;52.198;5.422;2023-06-19T05:55:23;100920.88;;;20.25;66.27
17438;BME280;70275;52.198;5.422;2023-06-19T05:57:53;100925.28;;;19.97;67.05
17438;BME280;70275;52.198;5.422;2023-06-19T06:00:22;100930.09;;;19.87;67.61
17438;BME280;70275;52.198;5.422;2023-06-19T06:02:54;100936.25;;;19.81;68.13
17438;BME280;70275;52.198;5.422;2023-06-19T06:05:25;100917.69;;;19.86;68.13
17438;BME280;70275;52.198;5.422;2023-06-19T06:07:55;100932.50;;;19.82;67.93
17438;BME280;70275;52.198;5.422;2023-06-19T06:10:24;100940.03;;;19.72;68.25
17438;BME280;70275;52.198;5.422;2023-06-19T06:12:53;100937.53;;;19.85;68.26
17438;BME280;70275;52.198;5.422;2023-06-19T06:15:22;100944.47;;;19.94;67.99
17438;BME280;70275;52.198;5.422;2023-06-19T06:17:54;100958.66;;;20.02;67.13
17438;BME280;70275;52.198;5.422;2023-06-19T06:20:23;100958.47;;;20.04;66.39
17438;BME280;70275;52.198;5.422;2023-06-19T06:22:53;100961.16;;;20.04;66.15
17438;BME280;70275;52.198;5.422;2023-06-19T06:25:22;100966.25;;;20.14;65.05
17438;BME280;70275;52.198;5.422;2023-06-19T06:27:51;100968.53;;;20.17;64.90
17438;BME280;70275;52.198;5.422;2023-06-19T06:30:20;100975.06;;;20.22;64.46
17438;BME280;70275;52.198;5.422;2023-06-19T06:32:49;100975.97;;;20.44;63.74
17438;BME280;70275;52.198;5.422;2023-06-19T06:35:21;100970.88;;;20.34;62.70
17438;BME280;70275;52.198;5.422;2023-06-19T06:37:50;100970.09;;;20.40;63.17
17438;BME280;70275;52.198;5.422;2023-06-19T06:40:19;100977.75;;;20.37;63.14
17438;BME280;70275;52.198;5.422;2023-06-19T06:42:48;100982.25;;;20.51;62.82
17438;BME280;70275;52.198;5.422;2023-06-19T06:45:16;100969.19;;;20.33;63.37
17438;BME280;70275;52.198;5.422;2023-06-19T06:47:45;100993.53;;;20.25;64.00
17438;BME280;70275;52.198;5.422;2023-06-19T06:50:14;101001.03;;;20.15;64.44
17438;BME280;70275;52.198;5.422;2023-06-19T06:52:46;100993.03;;;20.51;63.36
17438;BME280;70275;52.198;5.422;2023-06-19T06:55:15;100998.97;;;20.46;63.46
17438;BME280;70275;52.198;5.422;2023-06-19T06:57:44;101002.66;;;20.60;63.10
17438;BME280;70275;52.198;5.422;2023-06-19T07:00:14;101005.84;;;20.49;63.16
17438;BME280;70275;52.198;5.422;2023-06-19T07:02:44;101009.31;;;20.64;62.59
17438;BME280;70275;52.198;5.422;2023-06-19T07:05:14;101016.56;;;20.63;62.34
17438;BME280;70275;52.198;5.422;2023-06-19T07:07:45;101009.19;;;20.36;63.39
17438;BME280;70275;52.198;5.422;2023-06-19T07:10:14;101020.06;;;20.28;63.19
17438;BME280;70275;52.198;5.422;2023-06-19T07:12:47;101019.22;;;20.78;62.37
17438;BME280;70275;52.198;5.422;2023-06-19T07:15:17;101028.41;;;20.48;63.10
17438;BME280;70275;52.198;5.422;2023-06-19T07:17:47;101030.31;;;20.54;63.05
17438;BME280;70275;52.198;5.422;2023-06-19T07:20:16;101034.41;;;20.64;63.03
17438;BME280;70275;52.198;5.422;2023-06-19T07:22:50;101040.03;;;21.05;61.77
17438;BME280;70275;52.198;5.422;2023-06-19T07:25:20;101041.72;;;20.92;62.38
17438;BME280;70275;52.198;5.422;2023-06-19T07:27:50;101047.00;;;20.78;62.18
17438;BME280;70275;52.198;5.422;2023-06-19T07:30:20;101048.97;;;21.06;61.05
17438;BME280;70275;52.198;5.422;2023-06-19T07:32:48;101048.94;;;20.70;62.11
17438;BME280;70275;52.198;5.422;2023-06-19T07:35:17;101046.06;;;20.71;61.93
17438;BME280;70275;52.198;5.422;2023-06-19T07:37:49;101042.81;;;20.76;61.82
17438;BME280;70275;52.198;5.422;2023-06-19T07:40:18;101045.38;;;20.63;61.04
17438;BME280;70275;52.198;5.422;2023-06-19T07:42:46;101051.59;;;20.85;60.84
17438;BME280;70275;52.198;5.422;2023-06-19T07:45:16;101063.66;;;21.24;59.51
17438;BME280;70275;52.198;5.422;2023-06-19T07:47:54;101048.94;;;21.27;59.59
17438;BME280;70275;52.198;5.422;2023-06-19T07:50:24;101061.16;;;21.72;58.77
17438;BME280;70275;52.198;5.422;2023-06-19T07:52:55;101067.22;;;21.53;58.62
17438;BME280;70275;52.198;5.422;2023-06-19T07:55:24;101067.94;;;21.40;59.35
17438;BME280;70275;52.198;5.422;2023-06-19T07:57:54;101068.97;;;21.18;59.92
17438;BME280;70275;52.198;5.422;2023-06-19T08:00:23;101075.59;;;21.36;59.76
17438;BME280;70275;52.198;5.422;2023-06-19T08:02:52;101075.38;;;21.59;58.96
17438;BME280;70275;52.198;5.422;2023-06-19T08:05:21;101079.34;;;21.42;59.03
17438;BME280;70275;52.198;5.422;2023-06-19T08:07:50;101089.72;;;21.38;59.29
17438;BME280;70275;52.198;5.422;2023-06-19T08:10:22;101082.25;;;21.40;59.23
17438;BME280;70275;52.198;5.422;2023-06-19T08:12:50;101092.06;;;21.48;59.90
17438;BME280;70275;52.198;5.422;2023-06-19T08:15:19;101086.97;;;21.81;58.45
17438;BME280;70275;52.198;5.422;2023-06-19T08:17:48;101088.63;;;22.09;58.17
17438;BME280;70275;52.198;5.422;2023-06-19T08:20:17;101077.78;;;21.75;58.69
17438;BME280;70275;52.198;5.422;2023-06-19T08:22:46;101082.78;;;21.78;58.57
17438;BME280;70275;52.198;5.422;2023-06-19T08:25:15;101090.06;;;21.57;59.81
17438;BME280;70275;52.198;5.422;2023-06-19T08:27:47;101092.53;;;22.75;56.47
17438;BME280;70275;52.198;5.422;2023-06-19T08:30:16;101086.78;;;22.51;56.66
17438;BME280;70275;52.198;5.422;2023-06-19T08:32:46;101091.09;;;22.04;57.88
17438;BME280;70275;52.198;5.422;2023-06-19T08:35:15;101100.94;;;22.19;57.69
17438;BME280;70275;52.198;5.422;2023-06-19T08:37:45;101104.72;;;22.24;57.31
17438;BME280;70275;52.198;5.422;2023-06-19T08:40:14;101119.34;;;22.08;57.11
17438;BME280;70275;52.198;5.422;2023-06-19T08:42:45;101107.38;;;22.18;57.41
17438;BME280;70275;52.198;5.422;2023-06-19T08:45:14;101123.50;;;22.04;58.22
17438;BME280;70275;52.198;5.422;2023-06-19T08:47:47;101124.97;;;24.28;52.37
17438;BME280;70275;52.198;5.422;2023-06-19T08:50:16;101136.44;;;23.90;52.97
17438;BME280;70275;52.198;5.422;2023-06-19T08:52:45;101139.78;;;23.86;53.44
17438;BME280;70275;52.198;5.422;2023-06-19T08:55:14;101142.88;;;22.83;55.25
17438;BME280;70275;52.198;5.422;2023-06-19T08:57:48;101139.94;;;22.44;55.78
17438;BME280;70275;52.198;5.422;2023-06-19T09:00:24;101144.06;;;22.12;56.89
17438;BME280;70275;52.198;5.422;2023-06-19T09:03:01;101136.97;;;22.32;56.33
17438;BME280;70275;52.198;5.422;2023-06-19T09:05:30;101144.22;;;22.32;56.68
17438;BME280;70275;52.198;5.422;2023-06-19T09:08:00;101143.13;;;23.01;55.16
17438;BME280;70275;52.198;5.422;2023-06-19T09:10:29;101138.06;;;23.59;53.47
17438;BME280;70275;52.198;5.422;2023-06-19T09:13:03;101144.13;;;24.20;51.66
17438;BME280;70275;52.198;5.422;2023-06-19T09:15:36;101144.22;;;24.70;50.43
17438;BME280;70275;52.198;5.422;2023-06-19T09:18:07;101147.22;;;24.36;51.07
17438;BME280;70275;52.198;5.422;2023-06-19T09:20:39;101147.22;;;23.38;53.70
17438;BME280;70275;52.198;5.422;2023-06-19T09:23:11;101152.25;;;23.87;53.00
17438;BME280;70275;52.198;5.422;2023-06-19T09:25:47;101150.16;;;23.89;53.24
17438;BME280;70275;52.198;5.422;2023-06-19T09:28:21;101157.53;;;24.72;50.65
17438;BME280;70275;52.198;5.422;2023-06-19T09:30:58;101150.50;;;24.51;51.00
17438;BME280;70275;52.198;5.422;2023-06-19T09:33:32;101161.00;;;24.35;51.18
17438;BME280;70275;52.198;5.422;2023-06-19T09:36:04;101169.75;;;24.24;51.75
17438;BME280;70275;52.198;5.422;2023-06-19T09:38:36;101161.78;;;23.43;53.38
17438;BME280;70275;52.198;5.422;2023-06-19T09:41:07;101171.19;;;23.67;52.10
17438;BME280;70275;52.198;5.422;2023-06-19T09:43:42;101162.66;;;23.64;51.79
17438;BME280;70275;52.198;5.422;2023-06-19T09:46:13;101175.34;;;23.57;52.07
17438;BME280;70275;52.198;5.422;2023-06-19T09:48:45;101180.22;;;23.14;53.40
17438;BME280;70275;52.198;5.422;2023-06-19T09:51:20;101187.66;;;24.05;51.34
17438;BME280;70275;52.198;5.422;2023-06-19T09:53:50;101186.78;;;23.65;52.35
17438;BME280;70275;52.198;5.422;2023-06-19T09:56:19;101190.56;;;24.23;50.79
17438;BME280;70275;52.198;5.422;2023-06-19T09:58:57;101185.97;;;23.71;51.90
17438;BME280;70275;52.198;5.422;2023-06-19T10:01:29;101193.91;;;23.99;51.46
17438;BME280;70275;52.198;5.422;2023-06-19T10:04:05;101212.03;;;23.79;51.97
17438;BME280;70275;52.198;5.422;2023-06-19T10:06:43;101216.59;;;24.76;49.55
17438;BME280;70275;52.198;5.422;2023-06-19T10:09:16;101211.81;;;24.33;50.10
17438;BME280;70275;52.198;5.422;2023-06-19T10:11:49;101189.97;;;24.08;51.06
17438;BME280;70275;52.198;5.422;2023-06-19T10:14:22;101218.88;;;24.60;50.43
17438;BME280;70275;52.198;5.422;2023-06-19T10:16:51;101205.97;;;23.90;51.90
17438;BME280;70275;52.198;5.422;2023-06-19T10:19:22;101209.09;;;23.74;52.59
17438;BME280;70275;52.198;5.422;2023-06-19T10:21:54;101213.44;;;23.62;51.50
17438;BME280;70275;52.198;5.422;2023-06-19T10:24:25;101194.28;;;23.57;51.58
17438;BME280;70275;52.198;5.422;2023-06-19T10:27:02;101193.94;;;24.25;50.51
17438;BME280;70275;52.198;5.422;2023-06-19T10:29:41;101199.56;;;24.17;50.27
17438;BME280;70275;52.198;5.422;2023-06-19T10:32:10;101188.69;;;25.14;48.72
17438;BME280;70275;52.198;5.422;2023-06-19T10:34:39;101190.00;;;24.98;49.12
17438;BME280;70275;52.198;5.422;2023-06-19T10:37:08;101203.72;;;25.10;49.09
17438;BME280;70275;52.198;5.422;2023-06-19T10:39:36;101207.41;;;25.28;48.30
17438;BME280;70275;52.198;5.422;2023-06-19T10:42:07;101203.81;;;24.83;49.38
17438;BME280;70275;52.198;5.422;2023-06-19T10:44:37;101210.34;;;25.27;48.03
17438;BME280;70275;52.198;5.422;2023-06-19T10:47:10;101212.44;;;24.28;49.11
17438;BME280;70275;52.198;5.422;2023-06-19T10:49:39;101203.50;;;24.01;49.46
17438;BME280;70275;52.198;5.422;2023-06-19T10:52:08;101208.72;;;24.23;49.49
17438;BME280;70275;52.198;5.422;2023-06-19T10:54:37;101219.88;;;24.92;47.54
17438;BME280;70275;52.198;5.422;2023-06-19T10:57:07;101202.81;;;25.29;46.99
17438;BME280;70275;52.198;5.422;2023-06-19T10:59:36;101209.72;;;25.25;47.17
17438;BME280;70275;52.198;5.422;2023-06-19T11:02:06;101205.56;;;25.22;46.95
17438;BME280;70275;52.198;5.422;2023-06-19T11:04:40;101197.38;;;25.29;46.70
17438;BME280;70275;52.198;5.422;2023-06-19T11:07:09;101197.66;;;25.90;45.49
17438;BME280;70275;52.198;5.422;2023-06-19T11:09:38;101196.00;;;24.36;48.60
17438;BME280;70275;52.198;5.422;2023-06-19T11:12:08;101209.16;;;25.10;47.62
17438;BME280;70275;52.198;5.422;2023-06-19T11:14:37;101208.75;;;24.16;49.55
17438;BME280;70275;52.198;5.422;2023-06-19T11:17:08;101198.88;;;23.76;50.57
17438;BME280;70275;52.198;5.422;2023-06-19T11:19:40;101203.03;;;24.76;48.91
17438;BME280;70275;52.198;5.422;2023-06-19T11:22:10;101194.09;;;26.39;44.34
17438;BME280;70275;52.198;5.422;2023-06-19T11:24:44;101205.22;;;25.50;46.38
17438;BME280;70275;52.198;5.422;2023-06-19T11:27:19;101203.56;;;25.49;46.24
17438;BME280;70275;52.198;5.422;2023-06-19T11:29:56;101190.22;;;25.41;46.24
17438;BME280;70275;52.198;5.422;2023-06-19T11:32:31;101190.66;;;26.00;45.27
17438;BME280;70275;52.198;5.422;2023-06-19T11:35:10;101193.22;;;26.63;44.44
17438;BME280;70275;52.198;5.422;2023-06-19T11:37:41;101188.72;;;25.83;44.21
17438;BME280;70275;52.198;5.422;2023-06-19T11:40:11;101205.25;;;26.92;42.30
17438;BME280;70275;52.198;5.422;2023-06-19T11:42:52;101196.94;;;27.52;41.06
17438;BME280;70275;52.198;5.422;2023-06-19T11:45:22;101202.19;;;26.63;42.81
17438;BME280;70275;52.198;5.422;2023-06-19T11:47:51;101204.88;;;26.27;44.10
17438;BME280;70275;52.198;5.422;2023-06-19T11:50:27;101210.41;;;27.89;41.16
17438;BME280;70275;52.198;5.422;2023-06-19T11:52:56;101216.19;;;28.45;40.20
17438;BME280;70275;52.198;5.422;2023-06-19T11:55:26;101215.00;;;27.77;39.34
17438;BME280;70275;52.198;5.422;2023-06-19T11:57:54;101203.63;;;26.48;41.83
17438;BME280;70275;52.198;5.422;2023-06-19T12:00:24;101207.38;;;25.97;42.89
17438;BME280;70275;52.198;5.422;2023-06-19T12:02:52;101205.00;;;25.07;45.23
17438;BME280;70275;52.198;5.422;2023-06-19T12:05:25;101204.69;;;27.19;41.40
17438;BME280;70275;52.198;5.422;2023-06-19T12:07:54;101197.50;;;27.43;40.79
17438;BME280;70275;52.198;5.422;2023-06-19T12:10:24;101203.38;;;27.70;39.98
17438;BME280;70275;52.198;5.422;2023-06-19T12:12:52;101207.00;;;26.86;42.08
17438;BME280;70275;52.198;5.422;2023-06-19T12:15:22;101215.91;;;26.75;41.67
17438;BME280;70275;52.198;5.422;2023-06-19T12:17:52;101200.19;;;27.73;39.71
17438;BME280;70275;52.198;5.422;2023-06-19T12:20:26;101213.06;;;27.36;39.71
17438;BME280;70275;52.198;5.422;2023-06-19T12:22:55;101215.38;;;26.84;39.97
17438;BME280;70275;52.198;5.422;2023-06-19T12:25:24;101200.69;;;26.67;41.26
17438;BME280;70275;52.198;5.422;2023-06-19T12:27:53;101216.22;;;25.62;44.07
17438;BME280;70275;52.198;5.422;2023-06-19T12:30:22;101209.59;;;25.82;44.29
17438;BME280;70275;52.198;5.422;2023-06-19T12:32:52;101206.59;;;27.67;40.66
17438;BME280;70275;52.198;5.422;2023-06-19T12:35:21;101211.81;;;27.02;41.58
17438;BME280;70275;52.198;5.422;2023-06-19T12:37:52;101216.03;;;26.62;41.55
17438;BME280;70275;52.198;5.422;2023-06-19T12:40:21;101216.75;;;26.75;42.56
17438;BME280;70275;52.198;5.422;2023-06-19T12:42:50;101219.38;;;28.42;39.85
17438;BME280;70275;52.198;5.422;2023-06-19T12:45:19;101230.06;;;27.49;40.94
17438;BME280;70275;52.198;5.422;2023-06-19T12:47:48;101219.78;;;25.56;44.98
17438;BME280;70275;52.198;5.422;2023-06-19T12:50:18;101224.66;;;26.77;42.11
17438;BME280;70275;52.198;5.422;2023-06-19T12:52:47;101229.84;;;26.60;41.93
17438;BME280;70275;52.198;5.422;2023-06-19T12:55:18;101225.78;;;25.95;43.59
17438;BME280;70275;52.198;5.422;2023-06-19T12:57:47;101215.84;;;25.51;44.57
17438;BME280;70275;52.198;5.422;2023-06-19T13:00:17;101222.63;;;25.67;44.40
17438;BME280;70275;52.198;5.422;2023-06-19T13:02:46;101229.84;;;27.81;40.76
17438;BME280;70275;52.198;5.422;2023-06-19T13:05:16;101226.00;;;27.40;40.79